Time;durP1;ratioP1;P1;durP2;ratioP2;P2;SDS_P1;SDS_P2;PMS_P1;PMS_P2;Temp;Humidity;BMP_temperature;BMP_pressure;BME280_temperature;BME280_humidity;BME280_pressure;Samples;Min_cycle;Max_cycle;Signal;HPM_P1;HPM_P2
2021/03/14 00:01:05;;;;;;;1.15;0.60;;;;;;;3.16;87.19;97655.34;5034864;28;20451;-75
2021/03/14 00:03:31;;;;;;;3.40;0.80;;;;;;;3.17;86.63;97639.13;5046209;28;20032;-75
2021/03/14 00:05:58;;;;;;;1.10;0.60;;;;;;;3.11;87.57;97649.72;5029853;28;20136;-75
2021/03/14 00:08:26;;;;;;;5.30;1.00;;;;;;;3.07;88.06;97657.28;5035560;28;20027;-75
2021/03/14 00:10:54;;;;;;;2.28;0.68;;;;;;;3.14;88.33;97674.22;5033933;28;20037;-75
2021/03/14 00:13:27;;;;;;;0.57;0.57;;;;;;;3.20;88.03;97684.19;5046278;28;20091;-75
2021/03/14 00:15:52;;;;;;;0.90;0.73;;;;;;;3.22;87.69;97686.66;5028317;28;20110;-75
2021/03/14 00:18:21;;;;;;;1.13;0.40;;;;;;;3.17;87.22;97673.88;5040406;28;20068;-75
2021/03/14 00:20:47;;;;;;;;;;;;;;;3.25;86.91;97686.31;5017849;28;20041;-75
2021/03/14 00:23:13;;;;;;;0.77;0.38;;;;;;;3.27;87.09;97690.47;5021528;28;19912;-75
2021/03/14 00:25:38;;;;;;;1.00;0.65;;;;;;;3.27;86.70;97678.91;5038102;28;20020;-75
2021/03/14 00:28:04;;;;;;;1.85;0.65;;;;;;;3.33;86.18;97696.06;5043310;28;20487;-75
2021/03/14 00:30:29;;;;;;;4.13;0.50;;;;;;;3.33;86.30;97691.56;5033907;28;20056;-75
2021/03/14 00:32:55;;;;;;;1.67;0.57;;;;;;;3.37;86.88;97689.34;5044613;28;20437;-76
2021/03/14 00:35:21;;;;;;;0.77;0.50;;;;;;;3.29;85.82;97682.25;5046235;28;20447;-75
2021/03/14 00:37:47;;;;;;;1.63;0.63;;;;;;;3.39;86.07;97700.69;5032974;28;20053;-76
2021/03/14 00:40:13;;;;;;;1.73;0.30;;;;;;;3.33;85.26;97688.03;5033022;28;20057;-75
2021/03/14 00:42:38;;;;;;;1.25;0.50;;;;;;;3.29;85.66;97691.09;5015811;28;20124;-76
2021/03/14 00:45:06;;;;;;;1.52;0.70;;;;;;;3.24;86.27;97684.63;5042770;28;20394;-74
2021/03/14 00:47:33;;;;;;;2.00;0.52;;;;;;;3.23;85.88;97693.69;5028163;28;20059;-74
2021/03/14 00:49:59;;;;;;;2.25;0.47;;;;;;;3.19;86.85;97708.41;5035028;28;20062;-75
2021/03/14 00:52:24;;;;;;;3.30;0.47;;;;;;;3.03;86.20;97698.72;5014785;28;20029;-74
2021/03/14 00:54:49;;;;;;;1.73;0.50;;;;;;;3.05;85.87;97718.09;5030294;28;20031;-74
2021/03/14 00:57:14;;;;;;;3.15;0.50;;;;;;;2.93;86.88;97706.16;5033121;28;20021;-75
2021/03/14 00:59:40;;;;;;;1.25;0.60;;;;;;;2.89;87.12;97712.91;5029725;28;20037;-75
2021/03/14 01:02:05;;;;;;;1.38;0.40;;;;;;;2.88;86.82;97705.88;5033062;28;20026;-75
2021/03/14 01:04:30;;;;;;;1.15;0.40;;;;;;;2.80;87.06;97715.66;5032929;28;20018;-75
2021/03/14 01:06:56;;;;;;;1.20;0.45;;;;;;;2.80;87.19;97712.97;5014828;28;20032;-76
2021/03/14 01:09:21;;;;;;;2.67;0.47;;;;;;;2.65;87.29;97690.75;5030278;28;20080;-75
2021/03/14 01:11:46;;;;;;;2.13;0.50;;;;;;;2.76;87.08;97709.00;5034741;28;20088;-76
2021/03/14 01:14:11;;;;;;;1.85;0.28;;;;;;;2.76;87.48;97711.66;5029517;28;20152;-75
2021/03/14 01:16:37;;;;;;;0.40;0.40;;;;;;;2.72;88.17;97704.19;5040835;28;20039;-75
2021/03/14 01:19:02;;;;;;;3.50;0.40;;;;;;;2.78;87.81;97703.50;5045214;28;20159;-75
2021/03/14 01:21:28;;;;;;;2.45;0.40;;;;;;;2.63;87.79;97706.13;5024719;28;21872;-75
2021/03/14 01:23:53;;;;;;;1.15;0.55;;;;;;;2.58;87.30;97700.47;5024516;28;20029;-75
2021/03/14 01:26:18;;;;;;;0.98;0.60;;;;;;;2.61;87.45;97724.16;5048172;28;20391;-77
2021/03/14 01:28:46;;;;;;;0.73;0.40;;;;;;;2.59;88.02;97735.03;5019327;28;20052;-79
2021/03/14 01:31:12;;;;;;;0.88;0.38;;;;;;;2.46;87.69;97726.75;5036324;28;20103;-79
2021/03/14 01:33:37;;;;;;;2.30;0.60;;;;;;;2.59;87.89;97726.16;5025500;28;20033;-79
2021/03/14 01:36:02;;;;;;;1.83;0.55;;;;;;;2.38;88.42;97694.78;5012595;28;20483;-78
2021/03/14 01:38:28;;;;;;;1.45;0.60;;;;;;;2.53;88.14;97722.38;5035124;28;20033;-79
2021/03/14 01:40:53;;;;;;;1.33;0.70;;;;;;;2.48;88.26;97734.59;5038269;28;20089;-79
2021/03/14 01:43:18;;;;;;;0.63;0.40;;;;;;;2.46;88.41;97723.25;5042223;28;20272;-79
2021/03/14 01:45:43;;;;;;;0.60;0.40;;;;;;;2.41;88.04;97735.31;5033454;28;20049;-78
2021/03/14 01:48:13;;;;;;;1.02;0.47;;;;;;;2.51;88.30;97744.91;5029296;28;20029;-77
2021/03/14 01:50:39;;;;;;;0.30;0.30;;;;;;;2.37;88.69;97728.66;5033384;28;20119;-78
2021/03/14 01:53:05;;;;;;;1.60;0.40;;;;;;;2.49;87.43;97739.78;5021022;28;20426;-78
2021/03/14 01:55:30;;;;;;;0.77;0.57;;;;;;;2.15;87.42;97692.97;5022630;28;20498;-78
2021/03/14 01:57:56;;;;;;;0.50;0.40;;;;;;;2.45;88.20;97738.47;5033399;28;20021;-78
2021/03/14 02:00:26;;;;;;;0.82;0.70;;;;;;;2.37;88.13;97743.84;5018850;28;20036;-78
2021/03/14 02:02:51;;;;;;;1.63;0.50;;;;;;;2.25;88.17;97731.91;5033855;28;20037;-78
2021/03/14 02:05:18;;;;;;;2.25;0.55;;;;;;;2.25;88.65;97729.25;5033738;28;20087;-78
2021/03/14 02:07:47;;;;;;;2.38;0.60;;;;;;;2.29;88.24;97722.56;5018324;28;20018;-78
2021/03/14 02:10:15;;;;;;;2.05;0.70;;;;;;;2.32;88.98;97747.03;5032238;28;20025;-77
2021/03/14 02:12:56;;;;;;;2.08;0.68;;;;;;;2.33;88.27;97750.53;4996583;28;20113;-77
2021/03/14 02:15:23;;;;;;;1.02;0.63;;;;;;;2.32;89.24;97736.38;5031746;28;20594;-78
2021/03/14 02:17:50;;;;;;;0.90;0.70;;;;;;;2.28;88.30;97747.56;5014270;28;20040;-78
2021/03/14 02:20:19;;;;;;;0.85;0.50;;;;;;;2.26;88.81;97750.44;5032186;28;20426;-78
2021/03/14 02:22:46;;;;;;;0.70;0.70;;;;;;;2.26;88.57;97747.75;5014781;28;20035;-78
2021/03/14 02:25:22;;;;;;;0.73;0.52;;;;;;;2.25;89.05;97756.75;5033565;28;20529;-77
2021/03/14 02:27:48;;;;;;;1.55;0.60;;;;;;;2.31;88.86;97766.75;5032906;28;20028;-78
2021/03/14 02:30:15;;;;;;;1.05;0.60;;;;;;;2.30;88.76;97759.72;5006363;28;20080;-78
2021/03/14 02:32:43;;;;;;;1.08;0.70;;;;;;;2.25;88.77;97770.09;5015645;28;20025;-78
2021/03/14 02:35:09;;;;;;;1.10;0.57;;;;;;;2.16;88.93;97756.00;5015557;28;20021;-78
2021/03/14 02:37:36;;;;;;;1.38;0.73;;;;;;;2.18;88.64;97770.00;5028938;28;20021;-78
2021/03/14 02:40:02;;;;;;;1.35;0.70;;;;;;;2.16;88.52;97773.84;5014964;28;20368;-79
2021/03/14 02:42:29;;;;;;;3.95;0.90;;;;;;;2.23;88.96;97768.63;5015293;28;20021;-78
2021/03/14 02:44:56;;;;;;;2.45;1.00;;;;;;;2.21;88.90;97766.13;5032897;28;20105;-79
2021/03/14 02:47:24;;;;;;;2.88;0.90;;;;;;;2.20;88.62;97780.47;5031879;28;20025;-79
2021/03/14 02:49:50;;;;;;;2.80;0.77;;;;;;;2.17;87.77;97772.81;5041427;28;20533;-78
2021/03/14 02:52:18;;;;;;;2.70;0.73;;;;;;;2.19;87.98;97781.50;5012488;28;20120;-79
2021/03/14 02:54:46;;;;;;;1.53;0.50;;;;;;;2.26;88.42;97785.13;5015187;28;20551;-78
2021/03/14 02:57:13;;;;;;;3.22;1.20;;;;;;;2.29;87.64;97783.94;5028878;28;20382;-78
2021/03/14 02:59:40;;;;;;;2.00;0.80;;;;;;;2.24;87.99;97778.31;5034279;28;20025;-78
2021/03/14 03:02:07;;;;;;;1.90;0.85;;;;;;;2.26;87.56;97792.31;5021741;28;20029;-79
2021/03/14 03:04:33;;;;;;;3.05;0.73;;;;;;;2.33;87.73;97811.94;5027822;28;20551;-79
2021/03/14 03:06:58;;;;;;;1.58;1.05;;;;;;;2.17;87.99;97789.69;5034861;28;20107;-79
2021/03/14 03:09:25;;;;;;;3.22;1.00;;;;;;;2.33;86.84;97822.59;5032070;28;20025;-78
2021/03/14 03:11:53;;;;;;;3.65;1.10;;;;;;;2.36;87.18;97830.28;5028395;28;20434;-78
2021/03/14 03:14:22;;;;;;;2.42;0.80;;;;;;;2.26;87.56;97811.81;5030140;28;20120;-78
2021/03/14 03:16:50;;;;;;;4.85;1.00;;;;;;;2.39;87.45;97846.78;5043239;28;20022;-78
2021/03/14 03:19:17;;;;;;;7.45;1.35;;;;;;;2.28;87.80;97839.16;5022397;28;20398;-78
2021/03/14 03:21:43;;;;;;;1.20;0.90;;;;;;;2.40;87.54;97851.09;5044965;28;20108;-77
2021/03/14 03:24:10;;;;;;;3.17;1.23;;;;;;;2.44;87.00;97861.41;5031081;28;20547;-78
2021/03/14 03:26:47;;;;;;;5.55;1.13;;;;;;;2.40;86.75;97847.59;5029334;28;20044;-77
2021/03/14 03:29:17;;;;;;;2.42;1.10;;;;;;;2.40;87.68;97859.09;5025530;28;20040;-77
2021/03/14 03:31:44;;;;;;;3.50;1.30;;;;;;;2.39;87.49;97857.44;5027354;28;20079;-78
2021/03/14 03:34:10;;;;;;;2.30;1.27;;;;;;;2.54;87.59;97880.72;5031556;28;20029;-77
2021/03/14 03:36:36;;;;;;;3.22;1.25;;;;;;;2.48;88.09;97881.44;5027052;28;20025;-77
2021/03/14 03:39:06;;;;;;;1.92;1.10;;;;;;;2.42;87.53;97878.44;5010569;28;20028;-78
2021/03/14 03:41:33;;;;;;;2.25;1.40;;;;;;;2.37;87.74;97874.66;5034823;28;20014;-77
2021/03/14 03:44:00;;;;;;;2.42;1.20;;;;;;;2.25;87.56;97870.69;5032212;28;20590;-77
2021/03/14 03:46:26;;;;;;;2.25;1.42;;;;;;;2.14;87.47;97861.22;5013583;28;20024;-77
2021/03/14 03:48:55;;;;;;;3.47;1.27;;;;;;;2.30;87.99;97892.34;5011391;28;20022;-77
2021/03/14 03:51:23;;;;;;;2.13;1.08;;;;;;;2.31;87.35;97907.38;5013617;28;20030;-77
2021/03/14 03:53:50;;;;;;;1.40;1.00;;;;;;;2.30;87.38;97898.50;5031265;28;20041;-77
2021/03/14 03:56:16;;;;;;;3.35;1.20;;;;;;;2.37;87.56;97909.34;5031276;28;20029;-77
2021/03/14 03:58:43;;;;;;;1.92;1.05;;;;;;;2.29;87.37;97906.72;5010981;28;20036;-77
2021/03/14 04:01:10;;;;;;;1.80;1.00;;;;;;;2.26;87.80;97902.56;5021715;28;20034;-77
2021/03/14 04:03:39;;;;;;;2.92;1.20;;;;;;;2.28;88.03;97911.22;5011350;28;20029;-78
2021/03/14 04:06:05;;;;;;;1.88;1.20;;;;;;;2.24;87.52;97931.25;5022819;28;20029;-77
2021/03/14 04:08:32;;;;;;;1.95;1.27;;;;;;;2.18;88.28;97921.25;5030135;28;20091;-78
2021/03/14 04:10:58;;;;;;;4.07;1.08;;;;;;;2.14;87.10;97907.41;5031729;28;20029;-78
2021/03/14 04:13:25;;;;;;;2.40;1.20;;;;;;;2.09;87.77;97925.78;5014473;28;20483;-77
2021/03/14 04:15:51;;;;;;;2.47;1.05;;;;;;;2.09;87.60;97938.28;5035984;28;20030;-78
2021/03/14 04:18:18;;;;;;;1.92;1.20;;;;;;;2.19;87.64;97946.94;5014253;28;20029;-77
2021/03/14 04:20:44;;;;;;;3.67;1.17;;;;;;;2.12;87.94;97932.59;5014128;28;20568;-78
2021/03/14 04:23:14;;;;;;;4.72;1.63;;;;;;;2.08;88.05;97934.78;5013603;28;20018;-78
2021/03/14 04:25:40;;;;;;;2.88;1.35;;;;;;;2.06;87.91;97935.97;5013980;28;20028;-78
2021/03/14 04:28:06;;;;;;;2.05;1.13;;;;;;;2.14;87.71;97963.44;5012144;28;20383;-77
2021/03/14 04:30:32;;;;;;;4.00;1.70;;;;;;;2.18;87.96;97974.63;5029716;28;20033;-77
2021/03/14 04:32:59;;;;;;;4.53;1.38;;;;;;;2.08;87.67;97972.16;5030387;28;20483;-78
2021/03/14 04:35:25;;;;;;;2.42;1.30;;;;;;;1.99;87.44;97959.81;5031763;28;20064;-77
2021/03/14 04:37:51;;;;;;;2.92;1.67;;;;;;;2.05;87.54;97969.00;5007625;28;20483;-77
2021/03/14 04:40:17;;;;;;;5.05;1.50;;;;;;;2.12;87.73;97984.16;5016883;28;20103;-77
2021/03/14 04:42:47;;;;;;;3.65;1.88;;;;;;;2.15;87.77;97982.97;5035385;28;20029;-77
2021/03/14 04:45:12;;;;;;;;;;;;;;;2.25;87.41;97999.63;5035783;28;20072;-77
2021/03/14 04:47:42;;;;;;;4.53;1.50;;;;;;;2.27;86.59;98002.94;5034508;28;19955;-77
2021/03/14 04:50:12;;;;;;;2.83;1.50;;;;;;;2.29;86.81;98000.94;5024963;28;20029;-78
2021/03/14 04:52:39;;;;;;;3.28;1.50;;;;;;;2.33;86.80;97996.94;5019883;28;20029;-77
2021/03/14 04:55:08;;;;;;;3.65;1.60;;;;;;;2.29;86.92;97997.47;5017023;28;20029;-77
2021/03/14 04:57:37;;;;;;;3.65;1.63;;;;;;;2.32;87.05;98000.59;5017033;28;20056;-77
2021/03/14 05:00:04;;;;;;;;;;;;;;;2.42;86.49;98016.44;5019867;28;20030;-78
2021/03/14 05:02:31;;;;;;;2.67;1.25;;;;;;;2.45;86.35;98024.09;5018446;28;20016;-78
2021/03/14 05:04:58;;;;;;;3.05;1.60;;;;;;;2.39;86.86;98011.44;5029483;28;20430;-78
2021/03/14 05:07:25;;;;;;;2.67;1.80;;;;;;;2.41;86.91;98004.06;5034683;28;20013;-78
2021/03/14 05:09:51;;;;;;;2.15;1.45;;;;;;;2.45;86.27;98021.44;5037648;28;20021;-78
2021/03/14 05:12:17;;;;;;;3.10;1.65;;;;;;;2.45;86.29;98031.28;5030928;28;20032;-78
2021/03/14 05:14:43;;;;;;;2.60;1.17;;;;;;;2.44;85.97;98029.59;5014704;28;20049;-77
2021/03/14 05:17:09;;;;;;;4.38;1.65;;;;;;;2.41;86.48;98041.44;5016098;28;20056;-77
2021/03/14 05:19:34;;;;;;;4.68;1.25;;;;;;;2.41;85.99;98030.78;5034946;28;20086;-77
2021/03/14 05:22:01;;;;;;;5.55;1.40;;;;;;;2.41;85.79;98036.97;5018583;28;20029;-78
2021/03/14 05:24:27;;;;;;;2.95;1.38;;;;;;;2.48;85.66;98036.28;5016937;28;20563;-77
2021/03/14 05:27:00;;;;;;;3.45;1.15;;;;;;;2.53;84.58;98036.59;5014728;28;20014;-78
2021/03/14 05:29:25;;;;;;;4.22;1.25;;;;;;;2.55;84.70;98037.25;5035332;28;20071;-78
2021/03/14 05:31:55;;;;;;;3.72;1.08;;;;;;;2.58;84.59;98052.94;5035129;28;20104;-77
2021/03/14 05:34:20;;;;;;;3.10;1.20;;;;;;;2.53;84.76;98053.44;5016428;28;20060;-78
2021/03/14 05:36:46;;;;;;;1.85;1.15;;;;;;;2.60;84.33;98062.44;5023629;28;20056;-77
2021/03/14 05:39:12;;;;;;;4.45;1.10;;;;;;;2.66;84.38;98076.13;5033311;28;20383;-78
2021/03/14 05:41:39;;;;;;;3.55;1.10;;;;;;;2.51;84.57;98079.47;5034353;28;20021;-77
2021/03/14 05:44:05;;;;;;;1.70;1.00;;;;;;;2.56;84.25;98082.47;5037596;28;20025;-77
2021/03/14 05:46:31;;;;;;;2.03;0.90;;;;;;;2.58;83.98;98080.47;5021154;28;20382;-78
2021/03/14 05:48:57;;;;;;;6.60;1.10;;;;;;;2.54;84.87;98091.66;5034037;28;20057;-78
2021/03/14 05:51:27;;;;;;;2.08;0.80;;;;;;;2.60;83.78;98104.34;5031474;28;20541;-77
2021/03/14 05:53:54;;;;;;;2.85;1.58;;;;;;;2.56;83.88;98086.97;5030597;28;20491;-77
2021/03/14 05:56:20;;;;;;;3.17;0.98;;;;;;;2.67;84.12;98120.50;5014941;28;20494;-76
2021/03/14 05:58:46;;;;;;;1.98;1.00;;;;;;;2.41;84.97;98082.34;5026292;28;20491;-77
2021/03/14 06:01:16;;;;;;;1.63;1.10;;;;;;;2.50;84.39;98106.38;5016047;28;20116;-77
2021/03/14 06:03:41;;;;;;;2.45;0.95;;;;;;;2.34;85.11;98104.53;5022635;28;20032;-77
2021/03/14 06:06:08;;;;;;;3.25;1.10;;;;;;;2.52;85.27;98123.06;5035161;28;20037;-78
2021/03/14 06:08:34;;;;;;;1.33;0.80;;;;;;;2.46;85.46;98129.03;5034033;28;20033;-77
2021/03/14 06:11:04;;;;;;;5.03;1.27;;;;;;;2.42;85.60;98112.53;5020600;28;20480;-77
2021/03/14 06:13:29;;;;;;;2.17;1.10;;;;;;;2.44;85.50;98117.69;5053152;28;20413;-77
2021/03/14 06:15:55;;;;;;;2.10;1.30;;;;;;;2.47;85.42;98131.56;5021801;28;20036;-77
2021/03/14 06:18:21;;;;;;;3.80;1.35;;;;;;;2.48;87.06;98148.41;5016096;28;20033;-78
2021/03/14 06:20:47;;;;;;;6.22;1.17;;;;;;;2.48;85.72;98143.91;5026503;28;20079;-77
2021/03/14 06:23:15;;;;;;;4.55;1.50;;;;;;;2.53;85.14;98152.25;5031773;28;20438;-78
2021/03/14 06:25:42;;;;;;;1.90;0.98;;;;;;;2.39;85.36;98142.25;5032356;28;20117;-78
2021/03/14 06:28:08;;;;;;;3.30;1.27;;;;;;;2.54;85.14;98177.97;5032909;28;20079;-78
2021/03/14 06:30:35;;;;;;;3.97;1.10;;;;;;;2.46;85.70;98169.09;5034314;28;20029;-77
2021/03/14 06:33:01;;;;;;;3.45;0.88;;;;;;;2.54;85.23;98190.44;5034067;28;20029;-78
2021/03/14 06:35:41;;;;;;;3.13;0.77;;;;;;;2.41;85.19;98194.47;5031746;28;20017;-77
2021/03/14 06:38:29;;;;;;;2.08;1.30;;;;;;;2.47;85.13;98210.84;5037797;28;20442;-73
2021/03/14 06:41:04;;;;;;;2.95;0.95;;;;;;;2.48;85.97;98215.16;5046999;28;20048;-74
2021/03/14 06:43:34;;;;;;;2.40;1.00;;;;;;;2.39;85.53;98222.34;5048863;28;20092;-73
2021/03/14 06:46:00;;;;;;;3.00;1.15;;;;;;;2.36;86.16;98214.66;5042249;28;20037;-73
2021/03/14 06:48:26;;;;;;;6.53;1.60;;;;;;;2.40;86.00;98213.31;5034578;28;20108;-72
2021/03/14 06:50:52;;;;;;;7.00;1.30;;;;;;;2.36;86.12;98220.84;5051211;28;20048;-73
2021/03/14 06:53:24;;;;;;;7.38;1.67;;;;;;;2.39;85.57;98231.16;5047902;28;20025;-73
2021/03/14 06:56:05;;;;;;;3.88;1.35;;;;;;;2.45;85.24;98234.19;5037423;28;20076;-74
2021/03/14 06:58:34;;;;;;;3.22;1.33;;;;;;;2.45;85.94;98228.84;5039865;28;20029;-74
2021/03/14 07:01:13;;;;;;;3.72;1.35;;;;;;;2.47;85.38;98250.88;5044979;28;20025;-73
2021/03/14 07:03:44;;;;;;;4.43;1.08;;;;;;;2.40;85.07;98240.84;5045983;28;20001;-71
2021/03/14 07:06:19;;;;;;;5.63;1.63;;;;;;;2.38;85.09;98237.53;5033553;28;20661;-72
2021/03/14 07:08:47;;;;;;;7.57;1.25;;;;;;;2.53;85.47;98260.88;5047176;28;20569;-72
2021/03/14 07:11:32;;;;;;;5.32;1.60;;;;;;;2.48;85.65;98271.22;5043976;28;20001;-75
2021/03/14 07:13:58;;;;;;;3.40;1.30;;;;;;;2.37;85.83;98262.53;5021706;28;20627;-74
2021/03/14 07:16:39;;;;;;;6.50;1.27;;;;;;;2.29;84.98;98277.72;5032312;28;20065;-74
2021/03/14 07:19:06;;;;;;;2.25;1.30;;;;;;;2.12;86.41;98293.69;5025111;28;20088;-73
2021/03/14 07:21:32;;;;;;;6.07;1.50;;;;;;;1.86;86.72;98280.41;5032189;28;20042;-73
2021/03/14 07:23:57;;;;;;;7.07;1.60;;;;;;;1.80;86.56;98285.56;5028069;28;20037;-73
2021/03/14 07:26:43;;;;;;;3.40;1.67;;;;;;;1.60;87.02;98299.13;5020475;28;20835;-71
2021/03/14 07:29:09;;;;;;;3.13;1.42;;;;;;;1.74;87.47;98305.69;5044995;28;20056;-73
2021/03/14 07:31:35;;;;;;;3.90;1.50;;;;;;;1.83;87.18;98310.06;5045697;28;20884;-74
2021/03/14 07:34:03;;;;;;;5.88;1.58;;;;;;;1.80;87.23;98305.03;5033011;28;20043;-73
2021/03/14 07:36:28;;;;;;;4.20;1.60;;;;;;;1.93;87.88;98320.63;5027115;28;20056;-73
2021/03/14 07:38:56;;;;;;;4.88;1.70;;;;;;;2.04;87.04;98325.66;5034059;28;20029;-73
2021/03/14 07:41:21;;;;;;;4.13;1.67;;;;;;;2.28;86.65;98332.06;5032978;28;20399;-74
2021/03/14 07:43:46;;;;;;;6.97;2.20;;;;;;;2.28;86.45;98327.59;5014483;28;20029;-73
2021/03/14 07:46:12;;;;;;;6.43;1.80;;;;;;;2.48;85.41;98336.13;5013599;28;20056;-73
2021/03/14 07:48:41;;;;;;;7.03;1.48;;;;;;;2.32;85.59;98318.25;5025357;28;20045;-73
2021/03/14 07:51:07;;;;;;;5.20;1.40;;;;;;;2.39;84.65;98340.63;5028603;28;20034;-73
2021/03/14 07:53:34;;;;;;;2.72;1.20;;;;;;;2.37;84.45;98333.78;5028934;28;20072;-73
2021/03/14 07:56:00;;;;;;;4.70;1.40;;;;;;;2.48;85.14;98356.66;5028235;28;20098;-74
2021/03/14 07:58:26;;;;;;;7.30;1.27;;;;;;;2.57;84.40;98340.50;5014351;28;20057;-73
2021/03/14 08:00:51;;;;;;;2.03;1.00;;;;;;;2.58;82.95;98349.34;5021724;28;20060;-73
2021/03/14 08:03:16;;;;;;;3.67;1.10;;;;;;;2.74;83.22;98364.56;5039653;28;20056;-73
2021/03/14 08:05:46;;;;;;;8.40;1.33;;;;;;;2.72;84.07;98342.53;5032259;28;20116;-73
2021/03/14 08:08:24;;;;;;;6.80;1.20;;;;;;;3.14;82.55;98358.41;5026143;28;20103;-73
2021/03/14 08:10:49;;;;;;;4.25;1.00;;;;;;;3.28;81.71;98352.41;5037128;28;20103;-73
2021/03/14 08:13:16;;;;;;;4.00;1.10;;;;;;;3.55;81.08;98361.06;5037887;28;20029;-71
2021/03/14 08:15:42;;;;;;;2.72;1.30;;;;;;;3.48;80.25;98365.41;5038109;28;20041;-71
2021/03/14 08:18:42;;;;;;;3.13;1.17;;;;;;;3.67;79.04;98366.91;5032238;28;20026;-71
2021/03/14 08:21:28;;;;;;;6.03;1.02;;;;;;;3.84;78.41;98370.38;5057214;28;20169;-72
2021/03/14 08:23:56;;;;;;;2.83;1.20;;;;;;;3.60;78.70;98374.78;5036712;28;20059;-71
2021/03/14 08:26:33;;;;;;;5.53;1.15;;;;;;;3.74;79.71;98373.22;5027953;28;20062;-73
2021/03/14 08:29:04;;;;;;;5.55;1.15;;;;;;;3.55;79.66;98357.56;5034288;28;20044;-74
2021/03/14 08:31:43;;;;;;;2.38;0.98;;;;;;;3.72;79.14;98370.75;5054739;28;20060;-75
2021/03/14 08:34:29;;;;;;;6.43;1.00;;;;;;;3.76;78.79;98376.59;5055415;28;20022;-72
2021/03/14 08:36:55;;;;;;;7.63;1.20;;;;;;;3.87;77.39;98375.38;5043306;28;20041;-73
2021/03/14 08:39:24;;;;;;;5.25;1.33;;;;;;;3.92;77.91;98381.88;5039944;28;20033;-72
2021/03/14 08:41:54;;;;;;;6.28;1.05;;;;;;;4.23;77.42;98391.00;5055407;28;20548;-72
2021/03/14 08:44:34;;;;;;;6.18;1.02;;;;;;;4.39;75.45;98391.75;5043485;28;20033;-72
2021/03/14 08:47:02;;;;;;;2.33;0.80;;;;;;;4.35;76.58;98392.31;5059112;28;20107;-72
2021/03/14 08:49:27;;;;;;;10.13;1.25;;;;;;;4.35;75.96;98395.81;5039887;28;20034;-71
2021/03/14 08:51:53;;;;;;;5.93;1.00;;;;;;;4.10;76.94;98399.59;5034669;28;20093;-72
2021/03/14 08:54:29;;;;;;;4.47;1.08;;;;;;;4.13;75.86;98402.75;5037018;28;20089;-72
2021/03/14 08:56:56;;;;;;;3.70;0.90;;;;;;;4.37;75.42;98411.69;5047079;28;20038;-72
2021/03/14 08:59:22;;;;;;;4.28;1.10;;;;;;;4.38;75.93;98405.34;5034742;28;20033;-68
2021/03/14 09:01:53;;;;;;;9.18;1.35;;;;;;;4.39;74.73;98390.94;5021227;28;20494;-68
2021/03/14 09:04:29;;;;;;;3.00;0.70;;;;;;;4.30;74.77;98426.81;5038126;28;20021;-69
2021/03/14 09:07:07;;;;;;;5.22;1.17;;;;;;;4.14;75.91;98425.84;5015708;28;20133;-68
2021/03/14 09:09:35;;;;;;;3.38;0.90;;;;;;;4.59;76.79;98421.66;5034269;28;20037;-69
2021/03/14 09:12:07;;;;;;;6.10;1.23;;;;;;;4.32;75.59;98422.94;5016893;28;20025;-68
2021/03/14 09:14:42;;;;;;;2.67;0.55;;;;;;;4.91;75.16;98429.72;5024614;28;20034;-68
2021/03/14 09:17:16;;;;;;;5.47;1.02;;;;;;;4.97;72.40;98431.66;5020824;28;20111;-70
2021/03/14 09:19:54;;;;;;;6.40;0.98;;;;;;;4.98;74.09;98434.19;5026593;28;20021;-72
2021/03/14 09:22:24;;;;;;;4.82;0.98;;;;;;;4.79;73.47;98435.47;5028476;28;20025;-74
2021/03/14 09:24:51;;;;;;;;;;;;;;;4.91;74.16;98435.06;5029342;28;20064;-73
2021/03/14 09:27:19;;;;;;;4.18;0.88;;;;;;;4.72;73.44;98433.66;5035224;28;19916;-73
2021/03/14 09:29:44;;;;;;;4.40;0.80;;;;;;;4.90;73.51;98431.56;5034302;28;20033;-72
2021/03/14 09:32:37;;;;;;;3.55;0.73;;;;;;;4.93;72.33;98430.38;5034714;28;20024;-72
2021/03/14 09:35:16;;;;;;;4.72;0.88;;;;;;;4.62;72.51;98425.84;4991169;28;20045;-73
2021/03/14 09:37:42;;;;;;;3.55;0.98;;;;;;;4.80;73.07;98425.56;5015356;28;20388;-74
2021/03/14 09:40:11;;;;;;;5.45;0.80;;;;;;;4.86;70.94;98424.03;5030992;28;20033;-73
2021/03/14 09:42:37;;;;;;;3.70;0.90;;;;;;;4.69;71.69;98417.91;5034567;28;20029;-73
2021/03/14 09:45:20;;;;;;;4.75;1.70;;;;;;;5.17;73.03;98418.66;5045554;28;20043;-73
2021/03/14 09:48:06;;;;;;;7.47;0.80;;;;;;;5.47;69.09;98407.00;5015711;28;20054;-73
2021/03/14 09:50:42;;;;;;;2.88;1.15;;;;;;;5.72;69.69;98406.78;5027323;28;20033;-73
2021/03/14 09:53:08;;;;;;;4.35;0.73;;;;;;;5.56;66.61;98412.31;5031480;28;20483;-73
2021/03/14 09:55:39;;;;;;;6.95;0.82;;;;;;;6.15;67.21;98412.44;5024288;28;20033;-73
2021/03/14 09:58:10;;;;;;;2.17;0.47;;;;;;;6.53;63.71;98412.34;5030497;28;20041;-73
2021/03/14 10:00:36;;;;;;;2.80;0.82;;;;;;;8.92;58.64;98408.09;5029070;28;20067;-73
2021/03/14 10:03:03;;;;;;;3.83;1.15;;;;;;;10.56;54.49;98406.66;5033215;28;20064;-73
2021/03/14 10:05:40;;;;;;;4.70;0.88;;;;;;;10.02;56.00;98392.41;5013291;28;20026;-70
2021/03/14 10:08:07;;;;;;;5.40;1.20;;;;;;;8.89;57.82;98398.53;5005934;28;20026;-74
2021/03/14 10:10:35;;;;;;;2.30;0.85;;;;;;;7.59;62.38;98408.06;5026004;28;20530;-71
2021/03/14 10:13:04;;;;;;;2.08;0.80;;;;;;;6.90;64.31;98407.81;5033439;28;20040;-75
2021/03/14 10:15:30;;;;;;;2.55;0.60;;;;;;;6.41;65.38;98409.28;5028203;28;20025;-73
2021/03/14 10:17:55;;;;;;;2.80;0.73;;;;;;;6.05;65.63;98415.41;5024734;28;20071;-73
2021/03/14 10:20:22;;;;;;;1.55;0.80;;;;;;;5.75;67.05;98414.47;5019110;28;20118;-72
2021/03/14 10:22:57;;;;;;;4.32;0.90;;;;;;;5.97;68.10;98422.69;5016236;28;20029;-70
2021/03/14 10:25:25;;;;;;;6.85;1.00;;;;;;;5.89;67.13;98427.13;5029094;28;20522;-73
2021/03/14 10:27:51;;;;;;;5.32;1.40;;;;;;;5.51;68.29;98422.75;5021123;28;20028;-75
2021/03/14 10:30:18;;;;;;;2.92;0.65;;;;;;;5.63;68.27;98389.94;5016053;28;20017;-73
2021/03/14 10:32:46;;;;;;;2.78;0.88;;;;;;;5.54;68.43;98419.72;5024376;28;20037;-71
2021/03/14 10:35:11;;;;;;;5.15;0.90;;;;;;;5.64;67.29;98426.50;5021663;28;20021;-71
2021/03/14 10:37:39;;;;;;;6.32;0.82;;;;;;;5.41;67.32;98413.09;5035783;28;20083;-74
2021/03/14 10:40:10;;;;;;;2.95;1.00;;;;;;;5.47;66.04;98423.09;5009511;28;20077;-74
2021/03/14 10:42:48;;;;;;;2.70;0.60;;;;;;;5.88;64.29;98424.59;5019666;28;20029;-74
2021/03/14 10:45:22;;;;;;;1.58;0.40;;;;;;;6.78;62.82;98410.16;5013758;28;20049;-71
2021/03/14 10:48:00;;;;;;;3.72;0.70;;;;;;;7.28;60.19;98416.47;5027414;28;20107;-74
2021/03/14 10:50:31;;;;;;;3.20;0.68;;;;;;;8.49;59.02;98401.06;5021910;28;20171;-74
2021/03/14 10:53:08;;;;;;;6.72;1.13;;;;;;;7.83;59.62;98419.47;5029860;28;20525;-74
2021/03/14 10:55:35;;;;;;;3.03;0.77;;;;;;;7.39;59.70;98397.16;5023152;28;20037;-75
2021/03/14 10:58:11;;;;;;;3.75;0.90;;;;;;;6.65;62.35;98426.94;5028111;28;20075;-77
2021/03/14 11:00:41;;;;;;;9.43;1.65;;;;;;;6.82;61.61;98421.38;5032351;28;20514;-77
2021/03/14 11:03:12;;;;;;;7.45;0.95;;;;;;;7.96;57.93;98432.19;5028607;28;20033;-77
2021/03/14 11:05:39;;;;;;;5.07;1.00;;;;;;;7.98;58.28;98422.06;5040153;28;20067;-77
2021/03/14 11:08:04;;;;;;;5.40;1.50;;;;;;;7.85;57.80;98425.50;5051921;28;20463;-77
2021/03/14 11:10:30;;;;;;;4.40;1.50;;;;;;;8.33;58.11;98418.38;5030586;28;20028;-77
2021/03/14 11:12:56;;;;;;;3.85;1.00;;;;;;;8.60;59.06;98415.03;5013929;28;20034;-77
2021/03/14 11:15:28;;;;;;;7.72;1.30;;;;;;;7.72;58.12;98415.44;5013023;28;20157;-77
2021/03/14 11:17:55;;;;;;;4.93;1.33;;;;;;;8.31;56.22;98408.81;5022395;28;20023;-77
2021/03/14 11:20:22;;;;;;;4.88;1.20;;;;;;;8.96;56.42;98407.50;5012285;28;20128;-77
2021/03/14 11:22:53;;;;;;;4.28;1.00;;;;;;;10.66;52.41;98415.16;5013090;28;20072;-77
2021/03/14 11:25:19;;;;;;;5.95;1.40;;;;;;;10.89;50.85;98387.59;5011114;28;20483;-77
2021/03/14 11:27:47;;;;;;;4.90;1.23;;;;;;;10.12;52.89;98398.22;5025261;28;20029;-77
2021/03/14 11:30:14;;;;;;;3.55;1.15;;;;;;;9.61;53.41;98404.28;5050429;28;20116;-77
2021/03/14 11:32:40;;;;;;;3.58;1.10;;;;;;;8.69;55.39;98406.53;5018405;28;20040;-77
2021/03/14 11:35:06;;;;;;;2.90;1.05;;;;;;;10.43;51.91;98385.94;5030409;28;20018;-77
2021/03/14 11:37:31;;;;;;;3.58;1.10;;;;;;;11.59;51.43;98387.59;5030839;28;20137;-77
2021/03/14 11:39:56;;;;;;;4.72;1.17;;;;;;;11.34;51.23;98387.56;5016799;28;20064;-74
2021/03/14 11:42:22;;;;;;;6.43;0.98;;;;;;;9.25;53.04;98381.19;5031155;28;20491;-77
2021/03/14 11:44:47;;;;;;;7.05;1.00;;;;;;;9.36;54.60;98395.94;5030701;28;20037;-76
2021/03/14 11:47:12;;;;;;;7.05;1.20;;;;;;;9.51;55.42;98395.75;5017066;28;20028;-77